Wetterdaten: Montag, 18.02.2019
Datum Zeit Temp. A. Feuchte A. Luftdruck Regen Wind Richtung Richtung Sonnenschein UV Solar Windben
18.02.2019 00:00 3,6 C 79 % 1020,0 hPa 0,0 mm 0,0 km/h (0 Bft) N 0 0 min 0 UV-I 0 W/m 0,0 km/h (0 Bft)
18.02.2019 00:10 3,3 C 80 % 1020,1 hPa 0,0 mm 0,0 km/h (0 Bft) N 0 0 min 0 UV-I 0 W/m 0,0 km/h (0 Bft)
18.02.2019 00:20 3,1 C 80 % 1020,1 hPa 0,0 mm 0,0 km/h (0 Bft) N 0 0 min 0 UV-I 0 W/m 0,0 km/h (0 Bft)
18.02.2019 00:30 2,9 C 81 % 1020,0 hPa 0,0 mm 0,0 km/h (0 Bft) N 0 0 min 0 UV-I 0 W/m 0,0 km/h (0 Bft)
18.02.2019 00:40 2,8 C 82 % 1020,0 hPa 0,0 mm 0,0 km/h (0 Bft) N 0 0 min 0 UV-I 0 W/m 0,0 km/h (0 Bft)
18.02.2019 00:50 2,7 C 82 % 1020,0 hPa 0,0 mm 0,0 km/h (0 Bft) N 0 0 min 0 UV-I 0 W/m 0,0 km/h (0 Bft)
18.02.2019 01:00 2,5 C 82 % 1020,1 hPa 0,0 mm 0,0 km/h (0 Bft) N 0 0 min 0 UV-I 0 W/m 0,0 km/h (0 Bft)
18.02.2019 01:10 2,3 C 82 % 1020,1 hPa 0,0 mm 0,0 km/h (0 Bft) N 0 0 min 0 UV-I 0 W/m 0,0 km/h (0 Bft)
18.02.2019 01:20 2,2 C 83 % 1020,1 hPa 0,0 mm 0,0 km/h (0 Bft) N 0 0 min 0 UV-I 0 W/m 0,0 km/h (0 Bft)
18.02.2019 01:30 2,1 C 83 % 1020,0 hPa 0,0 mm 0,0 km/h (0 Bft) N 0 0 min 0 UV-I 0 W/m 0,0 km/h (0 Bft)
18.02.2019 01:40 2,0 C 83 % 1020,0 hPa 0,0 mm 0,0 km/h (0 Bft) N 0 0 min 0 UV-I 0 W/m 0,0 km/h (0 Bft)
18.02.2019 01:50 1,9 C 83 % 1019,9 hPa 0,0 mm 0,0 km/h (0 Bft) N 0 0 min 0 UV-I 0 W/m 0,0 km/h (0 Bft)
18.02.2019 02:00 1,8 C 83 % 1020,0 hPa 0,0 mm 0,0 km/h (0 Bft) N 0 0 min 0 UV-I 0 W/m 0,0 km/h (0 Bft)
18.02.2019 02:10 1,7 C 83 % 1019,9 hPa 0,0 mm 0,0 km/h (0 Bft) N 0 0 min 0 UV-I 0 W/m 0,0 km/h (0 Bft)
18.02.2019 02:20 1,7 C 84 % 1019,9 hPa 0,0 mm 0,0 km/h (0 Bft) N 0 0 min 0 UV-I 0 W/m 0,0 km/h (0 Bft)
18.02.2019 02:30 1,6 C 84 % 1019,8 hPa 0,0 mm 0,0 km/h (0 Bft) N 0 0 min 0 UV-I 0 W/m 0,0 km/h (0 Bft)
18.02.2019 02:40 1,6 C 84 % 1019,8 hPa 0,0 mm 0,0 km/h (0 Bft) N 0 0 min 0 UV-I 0 W/m 0,0 km/h (0 Bft)
18.02.2019 02:50 1,4 C 84 % 1019,7 hPa 0,0 mm 0,0 km/h (0 Bft) N 0 0 min 0 UV-I 0 W/m 0,0 km/h (0 Bft)
18.02.2019 03:00 1,3 C 84 % 1019,7 hPa 0,0 mm 0,0 km/h (0 Bft) N 0 0 min 0 UV-I 0 W/m 0,0 km/h (0 Bft)
18.02.2019 03:10 1,3 C 84 % 1019,5 hPa 0,0 mm 0,0 km/h (0 Bft) N 0 0 min 0 UV-I 0 W/m 0,0 km/h (0 Bft)
18.02.2019 03:20 1,2 C 84 % 1019,5 hPa 0,0 mm 0,0 km/h (0 Bft) N 0 0 min 0 UV-I 0 W/m 0,0 km/h (0 Bft)
18.02.2019 03:30 1,1 C 84 % 1019,4 hPa 0,0 mm 0,0 km/h (0 Bft) N 0 0 min 0 UV-I 0 W/m 0,0 km/h (0 Bft)
18.02.2019 03:40 0,9 C 84 % 1019,5 hPa 0,0 mm 0,0 km/h (0 Bft) N 0 0 min 0 UV-I 0 W/m 0,0 km/h (0 Bft)
18.02.2019 03:50 0,8 C 85 % 1019,4 hPa 0,0 mm 0,0 km/h (0 Bft) N 0 0 min 0 UV-I 0 W/m 0,0 km/h (0 Bft)
18.02.2019 04:00 0,7 C 85 % 1019,5 hPa 0,0 mm 0,0 km/h (0 Bft) N 0 0 min 0 UV-I 0 W/m 0,0 km/h (0 Bft)
18.02.2019 04:10 0,7 C 85 % 1019,5 hPa 0,0 mm 0,0 km/h (0 Bft) N 0 0 min 0 UV-I 0 W/m 0,0 km/h (0 Bft)
18.02.2019 04:20 0,6 C 86 % 1019,4 hPa 0,0 mm 0,0 km/h (0 Bft) N 0 0 min 0 UV-I 0 W/m 0,0 km/h (0 Bft)
18.02.2019 04:30 0,4 C 86 % 1019,4 hPa 0,0 mm 0,0 km/h (0 Bft) N 0 0 min 0 UV-I 0 W/m 0,0 km/h (0 Bft)
18.02.2019 04:40 0,3 C 86 % 1019,4 hPa 0,0 mm 0,0 km/h (0 Bft) N 0 0 min 0 UV-I 0 W/m 0,0 km/h (0 Bft)
18.02.2019 04:50 0,3 C 86 % 1019,5 hPa 0,0 mm 0,0 km/h (0 Bft) N 0 0 min 0 UV-I 0 W/m 0,0 km/h (0 Bft)
18.02.2019 05:00 0,2 C 86 % 1019,5 hPa 0,0 mm 0,0 km/h (0 Bft) N 0 0 min 0 UV-I 0 W/m 0,0 km/h (0 Bft)
18.02.2019 05:10 0,2 C 87 % 1019,5 hPa 0,0 mm 0,0 km/h (0 Bft) N 0 0 min 0 UV-I 0 W/m 0,0 km/h (0 Bft)
18.02.2019 05:20 0,1 C 87 % 1019,5 hPa 0,0 mm 0,0 km/h (0 Bft) N 0 0 min 0 UV-I 0 W/m 0,0 km/h (0 Bft)
18.02.2019 05:30 0,1 C 87 % 1019,5 hPa 0,0 mm 0,0 km/h (0 Bft) N 0 0 min 0 UV-I 0 W/m 0,0 km/h (0 Bft)
18.02.2019 05:40 0,1 C 87 % 1019,6 hPa 0,0 mm 0,0 km/h (0 Bft) N 0 0 min 0 UV-I 0 W/m 0,0 km/h (0 Bft)
18.02.2019 05:50 0,0 C 87 % 1019,5 hPa 0,0 mm 0,0 km/h (0 Bft) N 0 0 min 0 UV-I 0 W/m 0,0 km/h (0 Bft)
18.02.2019 06:00 -0,1 C 87 % 1019,5 hPa 0,0 mm 0,0 km/h (0 Bft) N 0 0 min 0 UV-I 0 W/m 0,0 km/h (0 Bft)
18.02.2019 06:10 -0,2 C 87 % 1019,5 hPa 0,0 mm 0,0 km/h (0 Bft) N 0 0 min 0 UV-I 0 W/m 0,0 km/h (0 Bft)
18.02.2019 06:20 -0,2 C 88 % 1019,4 hPa 0,0 mm 0,0 km/h (0 Bft) N 0 0 min 0 UV-I 0 W/m 0,0 km/h (0 Bft)
18.02.2019 06:30 -0,3 C 88 % 1019,3 hPa 0,0 mm 0,0 km/h (0 Bft) N 0 0 min 0 UV-I 0 W/m 0,0 km/h (0 Bft)
18.02.2019 06:40 -0,3 C 88 % 1019,3 hPa 0,0 mm 0,0 km/h (0 Bft) N 0 0 min 0 UV-I 0 W/m 0,0 km/h (0 Bft)
18.02.2019 06:50 -0,4 C 88 % 1019,2 hPa 0,0 mm 0,0 km/h (0 Bft) N 0 0 min 0 UV-I 0 W/m 0,0 km/h (0 Bft)
18.02.2019 07:00 -0,4 C 88 % 1019,1 hPa 0,0 mm 0,0 km/h (0 Bft) N 0 0 min 0 UV-I 0 W/m 0,0 km/h (0 Bft)
18.02.2019 07:10 -0,4 C 88 % 1019,3 hPa 0,0 mm 0,0 km/h (0 Bft) N 0 0 min 0 UV-I 0 W/m 0,0 km/h (0 Bft)
18.02.2019 07:20 -0,5 C 89 % 1019,2 hPa 0,0 mm 0,0 km/h (0 Bft) N 0 0 min 0 UV-I 0 W/m 0,0 km/h (0 Bft)
18.02.2019 07:30 -0,6 C 88 % 1019,3 hPa 0,0 mm 0,0 km/h (0 Bft) N 0 0 min 0 UV-I 0 W/m 0,0 km/h (0 Bft)
18.02.2019 07:40 -0,6 C 89 % 1019,4 hPa 0,0 mm 0,0 km/h (0 Bft) N 0 0 min 0 UV-I 1 W/m 0,0 km/h (0 Bft)
18.02.2019 07:50 -0,7 C 89 % 1019,4 hPa 0,0 mm 0,0 km/h (0 Bft) N 0 0 min 0 UV-I 8 W/m 0,0 km/h (0 Bft)
18.02.2019 08:00 -0,7 C 89 % 1019,4 hPa 0,0 mm 0,0 km/h (0 Bft) N 0 0 min 0 UV-I 12 W/m 0,0 km/h (0 Bft)
18.02.2019 08:10 -0,7 C 89 % 1019,5 hPa 0,0 mm 0,0 km/h (0 Bft) N 0 0 min 0 UV-I 16 W/m 0,0 km/h (0 Bft)
18.02.2019 08:20 -0,7 C 89 % 1019,5 hPa 0,0 mm 0,0 km/h (0 Bft) N 0 0 min 0 UV-I 19 W/m 0,0 km/h (0 Bft)
18.02.2019 08:30 -0,6 C 89 % 1019,5 hPa 0,0 mm 0,0 km/h (0 Bft) N 0 0 min 0 UV-I 22 W/m 0,0 km/h (0 Bft)
18.02.2019 08:40 -0,5 C 90 % 1019,4 hPa 0,0 mm 0,0 km/h (0 Bft) N 0 0 min 0 UV-I 26 W/m 0,0 km/h (0 Bft)
18.02.2019 08:50 -0,3 C 90 % 1019,4 hPa 0,0 mm 0,0 km/h (0 Bft) N 0 0 min 0 UV-I 72 W/m 0,0 km/h (0 Bft)
18.02.2019 09:00 0,0 C 91 % 1019,4 hPa 0,0 mm 0,0 km/h (0 Bft) N 0 10 min 0 UV-I 145 W/m 0,0 km/h (0 Bft)
18.02.2019 09:10 1,4 C 91 % 1019,5 hPa 0,0 mm 0,0 km/h (0 Bft) N 0 10 min 0 UV-I 165 W/m 0,0 km/h (0 Bft)
18.02.2019 09:20 3,1 C 89 % 1019,2 hPa 0,0 mm 0,0 km/h (0 Bft) N 0 10 min 1 UV-I 157 W/m 0,0 km/h (0 Bft)
18.02.2019 09:30 4,4 C 81 % 1019,2 hPa 0,0 mm 0,0 km/h (0 Bft) N 0 10 min 1 UV-I 169 W/m 0,0 km/h (0 Bft)
18.02.2019 09:40 5,4 C 76 % 1019,1 hPa 0,0 mm 0,0 km/h (0 Bft) N 0 10 min 1 UV-I 170 W/m 0,0 km/h (0 Bft)
18.02.2019 09:50 6,3 C 72 % 1018,8 hPa 0,0 mm 0,0 km/h (0 Bft) N 0 10 min 1 UV-I 218 W/m 0,0 km/h (0 Bft)
18.02.2019 10:00 7,2 C 69 % 1018,8 hPa 0,0 mm 0,0 km/h (0 Bft) N 0 10 min 1 UV-I 208 W/m 0,0 km/h (0 Bft)
18.02.2019 10:10 8,1 C 67 % 1018,7 hPa 0,0 mm 0,0 km/h (0 Bft) O-SO 116 10 min 1 UV-I 269 W/m 1,6 km/h (1 Bft)
18.02.2019 10:20 8,9 C 65 % 1018,8 hPa 0,0 mm 0,0 km/h (0 Bft) N 0 10 min 1 UV-I 234 W/m 1,6 km/h (1 Bft)
18.02.2019 10:30 9,8 C 63 % 1018,7 hPa 0,0 mm 0,0 km/h (0 Bft) N 0 10 min 1 UV-I 305 W/m 0,0 km/h (0 Bft)
18.02.2019 10:40 10,3 C 62 % 1018,6 hPa 0,0 mm 0,0 km/h (0 Bft) O-SO 115 10 min 1 UV-I 292 W/m 1,6 km/h (1 Bft)
18.02.2019 10:50 11,0 C 60 % 1018,5 hPa 0,0 mm 0,0 km/h (0 Bft) N 0 10 min 1 UV-I 286 W/m 1,6 km/h (1 Bft)
18.02.2019 11:00 11,5 C 59 % 1018,4 hPa 0,0 mm 0,1 km/h (0 Bft) O-SO 116 10 min 1 UV-I 357 W/m 3,2 km/h (1 Bft)
18.02.2019 11:10 12,1 C 57 % 1018,4 hPa 0,0 mm 0,2 km/h (0 Bft) O-SO 116 10 min 1 UV-I 373 W/m 4,8 km/h (1 Bft)
18.02.2019 11:20 12,6 C 55 % 1018,2 hPa 0,0 mm 0,3 km/h (0 Bft) O-SO 116 10 min 1 UV-I 314 W/m 6,4 km/h (2 Bft)
18.02.2019 11:30 13,3 C 53 % 1018,2 hPa 0,0 mm 0,0 km/h (0 Bft) O-SO 116 10 min 1 UV-I 350 W/m 6,4 km/h (2 Bft)
18.02.2019 11:40 13,8 C 51 % 1018,0 hPa 0,0 mm 0,8 km/h (0 Bft) O-SO 116 10 min 2 UV-I 389 W/m 6,4 km/h (2 Bft)
18.02.2019 11:50 14,2 C 50 % 1017,9 hPa 0,0 mm 0,8 km/h (0 Bft) O-SO 116 10 min 2 UV-I 436 W/m 8,0 km/h (2 Bft)
18.02.2019 12:00 14,6 C 48 % 1017,8 hPa 0,0 mm 0,0 km/h (0 Bft) O-SO 115 10 min 2 UV-I 469 W/m 8,0 km/h (2 Bft)
18.02.2019 12:10 14,9 C 49 % 1017,6 hPa 0,0 mm 0,0 km/h (0 Bft) N 0 10 min 2 UV-I 476 W/m 1,6 km/h (1 Bft)
18.02.2019 12:20 15,0 C 48 % 1017,6 hPa 0,0 mm 0,5 km/h (0 Bft) O-SO 116 10 min 2 UV-I 482 W/m 4,8 km/h (1 Bft)
18.02.2019 12:30 15,4 C 47 % 1017,4 hPa 0,0 mm 0,2 km/h (0 Bft) O-SO 116 10 min 2 UV-I 488 W/m 4,8 km/h (1 Bft)
18.02.2019 12:40 15,6 C 47 % 1017,3 hPa 0,0 mm 0,0 km/h (0 Bft) O-SO 116 10 min 2 UV-I 491 W/m 4,8 km/h (1 Bft)
18.02.2019 12:50 16,1 C 43 % 1017,1 hPa 0,0 mm 0,2 km/h (0 Bft) O-SO 116 10 min 2 UV-I 492 W/m 4,8 km/h (1 Bft)
18.02.2019 13:00 16,7 C 42 % 1017,0 hPa 0,0 mm 0,0 km/h (0 Bft) O-SO 115 10 min 2 UV-I 492 W/m 4,8 km/h (1 Bft)
18.02.2019 13:10 16,9 C 41 % 1017,0 hPa 0,0 mm 0,0 km/h (0 Bft) O-SO 116 10 min 2 UV-I 490 W/m 1,6 km/h (1 Bft)
18.02.2019 13:20 16,9 C 43 % 1016,7 hPa 0,0 mm 0,6 km/h (0 Bft) O-SO 116 10 min 2 UV-I 487 W/m 6,4 km/h (2 Bft)
18.02.2019 13:30 16,9 C 42 % 1016,6 hPa 0,0 mm 1,3 km/h (1 Bft) O-SO 116 10 min 2 UV-I 481 W/m 6,4 km/h (2 Bft)
18.02.2019 13:40 17,2 C 43 % 1016,6 hPa 0,0 mm 0,0 km/h (0 Bft) N 0 10 min 2 UV-I 475 W/m 6,4 km/h (2 Bft)
18.02.2019 13:50 17,3 C 43 % 1016,4 hPa 0,0 mm 0,0 km/h (0 Bft) O-SO 115 10 min 2 UV-I 466 W/m 1,6 km/h (1 Bft)
18.02.2019 14:00 17,3 C 43 % 1016,4 hPa 0,0 mm 0,6 km/h (0 Bft) O-SO 117 10 min 2 UV-I 456 W/m 6,4 km/h (2 Bft)
18.02.2019 14:10 17,3 C 43 % 1016,2 hPa 0,0 mm 0,3 km/h (0 Bft) O-SO 117 10 min 2 UV-I 443 W/m 6,4 km/h (2 Bft)
18.02.2019 14:20 17,4 C 43 % 1015,9 hPa 0,0 mm 0,0 km/h (0 Bft) O-SO 117 10 min 1 UV-I 432 W/m 4,8 km/h (1 Bft)
18.02.2019 14:30 17,4 C 41 % 1015,8 hPa 0,0 mm 0,0 km/h (0 Bft) O-SO 117 10 min 1 UV-I 421 W/m 1,6 km/h (1 Bft)
18.02.2019 14:40 17,3 C 44 % 1015,6 hPa 0,0 mm 0,0 km/h (0 Bft) O-SO 117 10 min 1 UV-I 406 W/m 1,6 km/h (1 Bft)
18.02.2019 14:50 17,2 C 44 % 1015,6 hPa 0,0 mm 1,3 km/h (1 Bft) O-SO 116 10 min 1 UV-I 390 W/m 6,4 km/h (2 Bft)
18.02.2019 15:00 17,6 C 40 % 1015,5 hPa 0,0 mm 0,0 km/h (0 Bft) N 0 10 min 1 UV-I 371 W/m 6,4 km/h (2 Bft)
18.02.2019 15:10 18,1 C 41 % 1015,4 hPa 0,0 mm 0,0 km/h (0 Bft) N 0 10 min 1 UV-I 352 W/m 0,0 km/h (0 Bft)
18.02.2019 15:20 18,1 C 41 % 1015,3 hPa 0,0 mm 0,0 km/h (0 Bft) O-SO 116 10 min 1 UV-I 333 W/m 1,6 km/h (1 Bft)
18.02.2019 15:30 17,4 C 42 % 1015,3 hPa 0,0 mm 0,0 km/h (0 Bft) O-SO 116 10 min 1 UV-I 314 W/m 1,6 km/h (1 Bft)
18.02.2019 15:40 17,3 C 42 % 1015,3 hPa 0,0 mm 0,1 km/h (0 Bft) O-SO 116 10 min 1 UV-I 293 W/m 3,2 km/h (1 Bft)
18.02.2019 15:50 17,4 C 41 % 1015,4 hPa 0,0 mm 0,0 km/h (0 Bft) N 0 10 min 1 UV-I 270 W/m 3,2 km/h (1 Bft)
18.02.2019 16:00 17,4 C 43 % 1015,1 hPa 0,0 mm 0,0 km/h (0 Bft) O-SO 115 10 min 1 UV-I 248 W/m 1,6 km/h (1 Bft)
18.02.2019 16:10 17,3 C 43 % 1015,0 hPa 0,0 mm 0,1 km/h (0 Bft) O-SO 116 10 min 1 UV-I 223 W/m 4,8 km/h (1 Bft)
18.02.2019 16:20 17,1 C 45 % 1015,3 hPa 0,0 mm 0,4 km/h (0 Bft) O-SO 120 10 min 1 UV-I 197 W/m 8,0 km/h (2 Bft)
18.02.2019 16:30 16,8 C 46 % 1015,0 hPa 0,0 mm 0,5 km/h (0 Bft) O-SO 120 10 min 0 UV-I 147 W/m 9,7 km/h (2 Bft)
18.02.2019 16:40 16,7 C 45 % 1015,0 hPa 0,0 mm 0,1 km/h (0 Bft) O-SO 121 10 min 0 UV-I 84 W/m 9,7 km/h (2 Bft)
18.02.2019 16:50 16,7 C 45 % 1014,8 hPa 0,0 mm 1,1 km/h (1 Bft) O-SO 121 0 min 0 UV-I 62 W/m 8,0 km/h (2 Bft)
18.02.2019 17:00 16,4 C 47 % 1014,6 hPa 0,0 mm 1,7 km/h (1 Bft) O-SO 121 0 min 0 UV-I 41 W/m 8,0 km/h (2 Bft)
18.02.2019 17:10 15,8 C 47 % 1014,4 hPa 0,0 mm 1,0 km/h (0 Bft) O-SO 122 0 min 0 UV-I 29 W/m 8,0 km/h (2 Bft)
18.02.2019 17:20 15,4 C 48 % 1014,3 hPa 0,0 mm 0,8 km/h (0 Bft) O-SO 122 0 min 0 UV-I 14 W/m 6,4 km/h (2 Bft)
18.02.2019 17:30 15,0 C 49 % 1014,3 hPa 0,0 mm 0,7 km/h (0 Bft) O-SO 122 0 min 0 UV-I 11 W/m 8,0 km/h (2 Bft)
18.02.2019 17:40 14,4 C 50 % 1014,2 hPa 0,0 mm 1,4 km/h (1 Bft) O-SO 122 0 min 0 UV-I 4 W/m 8,0 km/h (2 Bft)
18.02.2019 17:50 13,9 C 51 % 1014,2 hPa 0,0 mm 1,7 km/h (1 Bft) O-SO 122 0 min 0 UV-I 0 W/m 6,4 km/h (2 Bft)
18.02.2019 18:00 13,4 C 52 % 1014,1 hPa 0,0 mm 0,2 km/h (0 Bft) O-SO 122 0 min 0 UV-I 0 W/m 6,4 km/h (2 Bft)
18.02.2019 18:10 12,9 C 52 % 1014,3 hPa 0,0 mm 0,0 km/h (0 Bft) N 0 0 min 0 UV-I 0 W/m 0,0 km/h (0 Bft)
18.02.2019 18:20 12,4 C 54 % 1014,5 hPa 0,0 mm 1,9 km/h (1 Bft) O-SO 123 0 min 0 UV-I 0 W/m 11,3 km/h (2 Bft)
18.02.2019 18:30 12,0 C 56 % 1014,5 hPa 0,0 mm 0,4 km/h (0 Bft) SO 124 0 min 0 UV-I 0 W/m 11,3 km/h (2 Bft)
18.02.2019 18:40 11,6 C 57 % 1014,5 hPa 0,0 mm 0,6 km/h (0 Bft) SO 124 0 min 0 UV-I 0 W/m 6,4 km/h (2 Bft)
18.02.2019 18:50 11,1 C 59 % 1014,6 hPa 0,0 mm 0,9 km/h (0 Bft) O-SO 123 0 min 0 UV-I 0 W/m 8,0 km/h (2 Bft)
18.02.2019 19:00 10,8 C 59 % 1014,7 hPa 0,0 mm 1,2 km/h (1 Bft) SO 126 0 min 0 UV-I 0 W/m 9,7 km/h (2 Bft)
18.02.2019 19:10 10,4 C 60 % 1014,8 hPa 0,0 mm 0,9 km/h (0 Bft) SO 127 0 min 0 UV-I 0 W/m 9,7 km/h (2 Bft)
18.02.2019 19:20 10,2 C 60 % 1014,8 hPa 0,0 mm 0,0 km/h (0 Bft) N 0 0 min 0 UV-I 0 W/m 0,0 km/h (0 Bft)
18.02.2019 19:30 10,1 C 61 % 1014,8 hPa 0,0 mm 0,0 km/h (0 Bft) N 0 0 min 0 UV-I 0 W/m 0,0 km/h (0 Bft)
18.02.2019 19:40 9,8 C 61 % 1014,7 hPa 0,0 mm 0,0 km/h (0 Bft) SO 128 0 min 0 UV-I 0 W/m 1,6 km/h (1 Bft)
18.02.2019 19:50 9,6 C 62 % 1014,7 hPa 0,0 mm 0,1 km/h (0 Bft) SO 128 0 min 0 UV-I 0 W/m 4,8 km/h (1 Bft)
18.02.2019 20:00 9,3 C 63 % 1014,8 hPa 0,0 mm 0,4 km/h (0 Bft) SO 128 0 min 0 UV-I 0 W/m 6,4 km/h (2 Bft)
18.02.2019 20:10 9,0 C 65 % 1014,9 hPa 0,0 mm 0,2 km/h (0 Bft) SO 128 0 min 0 UV-I 0 W/m 6,4 km/h (2 Bft)
18.02.2019 20:20 8,8 C 65 % 1014,8 hPa 0,0 mm 0,6 km/h (0 Bft) SO 128 0 min 0 UV-I 0 W/m 6,4 km/h (2 Bft)
18.02.2019 20:30 8,7 C 65 % 1014,8 hPa 0,0 mm 0,5 km/h (0 Bft) SO 128 0 min 0 UV-I 0 W/m 6,4 km/h (2 Bft)
18.02.2019 20:40 8,5 C 66 % 1014,8 hPa 0,0 mm 0,1 km/h (0 Bft) SO 128 0 min 0 UV-I 0 W/m 6,4 km/h (2 Bft)
18.02.2019 20:50 8,3 C 66 % 1014,7 hPa 0,0 mm 0,1 km/h (0 Bft) SO 128 0 min 0 UV-I 0 W/m 8,0 km/h (2 Bft)
18.02.2019 21:00 8,2 C 67 % 1014,8 hPa 0,0 mm 0,2 km/h (0 Bft) SO 128 0 min 0 UV-I 0 W/m 8,0 km/h (2 Bft)
18.02.2019 21:10 8,0 C 67 % 1014,9 hPa 0,0 mm 0,1 km/h (0 Bft) SO 128 0 min 0 UV-I 0 W/m 6,4 km/h (2 Bft)
18.02.2019 21:20 7,8 C 68 % 1014,9 hPa 0,0 mm 0,0 km/h (0 Bft) N 0 0 min 0 UV-I 0 W/m 4,8 km/h (1 Bft)
18.02.2019 21:30 7,7 C 68 % 1014,9 hPa 0,0 mm 0,0 km/h (0 Bft) N 0 0 min 0 UV-I 0 W/m 0,0 km/h (0 Bft)
18.02.2019 21:40 7,5 C 68 % 1015,0 hPa 0,0 mm 0,0 km/h (0 Bft) N 0 0 min 0 UV-I 0 W/m 0,0 km/h (0 Bft)
18.02.2019 21:50 7,3 C 69 % 1015,1 hPa 0,0 mm 0,0 km/h (0 Bft) N 0 0 min 0 UV-I 0 W/m 0,0 km/h (0 Bft)
18.02.2019 22:00 7,2 C 69 % 1015,0 hPa 0,0 mm 0,0 km/h (0 Bft) N 0 0 min 0 UV-I 0 W/m 0,0 km/h (0 Bft)
18.02.2019 22:10 6,9 C 70 % 1014,9 hPa 0,0 mm 0,0 km/h (0 Bft) N 0 0 min 0 UV-I 0 W/m 0,0 km/h (0 Bft)
18.02.2019 22:20 6,7 C 70 % 1014,9 hPa 0,0 mm 0,0 km/h (0 Bft) N 0 0 min 0 UV-I 0 W/m 0,0 km/h (0 Bft)
18.02.2019 22:30 6,4 C 71 % 1014,9 hPa 0,0 mm 0,0 km/h (0 Bft) N 0 0 min 0 UV-I 0 W/m 0,0 km/h (0 Bft)
18.02.2019 22:40 6,2 C 71 % 1014,8 hPa 0,0 mm 0,0 km/h (0 Bft) N 0 0 min 0 UV-I 0 W/m 0,0 km/h (0 Bft)
18.02.2019 22:50 6,0 C 72 % 1014,8 hPa 0,0 mm 0,0 km/h (0 Bft) N 0 0 min 0 UV-I 0 W/m 0,0 km/h (0 Bft)
18.02.2019 23:00 5,7 C 72 % 1014,8 hPa 0,0 mm 0,0 km/h (0 Bft) N 0 0 min 0 UV-I 0 W/m 0,0 km/h (0 Bft)
18.02.2019 23:10 5,4 C 72 % 1014,8 hPa 0,0 mm 0,0 km/h (0 Bft) N 0 0 min 0 UV-I 0 W/m 0,0 km/h (0 Bft)
18.02.2019 23:20 5,2 C 73 % 1014,8 hPa 0,0 mm 0,0 km/h (0 Bft) N 0 0 min 0 UV-I 0 W/m 0,0 km/h (0 Bft)
18.02.2019 23:30 5,0 C 75 % 1014,9 hPa 0,0 mm 0,0 km/h (0 Bft) N 0 0 min 0 UV-I 0 W/m 0,0 km/h (0 Bft)
18.02.2019 23:40 4,8 C 76 % 1015,0 hPa 0,0 mm 0,0 km/h (0 Bft) N 0 0 min 0 UV-I 0 W/m 0,0 km/h (0 Bft)
18.02.2019 23:50 4,6 C 76 % 1014,9 hPa 0,0 mm 0,0 km/h (0 Bft) N 0 0 min 0 UV-I 0 W/m 0,0 km/h (0 Bft)
_ Min-Zeit 07:50 15:00 18:00 - 00:00 - - - - - 00:00
Minimum _ -0,7 C 40 % 1014,1 hPa - 0,0 km/h (0 Bft) - - - - - 0,0 km/h (0 Bft)
_ Max-Zeit 15:10 09:00 00:10 00:00 18:20 - - 09:00 12:40 12:50 18:20
Maximum _ 18,1 C 91 % 1020,1 hPa 0,0 mm 1,9 km/h
O-SO (1 Bft)
- - 10 min 2 UV-I 492 W/m 11,3 km/h
O-SO (2 Bft)
Durchschnitt _ 7,6 C 68 % 1017,3 hPa #0,0 mm 0,2 km/h (0 Bft) O-SO - #7:50 h 1 UV-I 268 W/m 2,5 km/h (1 Bft)